Time;durP1;ratioP1;P1;durP2;ratioP2;P2;SDS_P1;SDS_P2;PMS_P1;PMS_P2;Temp;Humidity;BMP_temperature;BMP_pressure;BME280_temperature;BME280_humidity;BME280_pressure;Samples;Min_cycle;Max_cycle;Signal;HPM_P1;HPM_P2
2023/07/25 00:01:04;;;;;;;2.88;1.52;;;;;;;;;;5055052;28;20238;-83
2023/07/25 00:03:33;;;;;;;1.30;1.30;;;;;;;;;;5054399;28;20594;-83
2023/07/25 00:06:02;;;;;;;1.52;1.42;;;;;;;;;;5054598;28;20212;-83
2023/07/25 00:08:29;;;;;;;1.40;1.30;;;;;;;;;;5054077;28;20234;-83
2023/07/25 00:10:56;;;;;;;1.98;1.20;;;;;;;;;;5054370;28;20230;-83
2023/07/25 00:13:23;;;;;;;1.63;1.52;;;;;;;;;;5053990;28;20234;-83
2023/07/25 00:15:51;;;;;;;2.13;1.40;;;;;;;;;;5053787;28;20206;-83
2023/07/25 00:18:18;;;;;;;1.85;1.45;;;;;;;;;;5053005;28;20238;-83
2023/07/25 00:20:46;;;;;;;1.80;1.70;;;;;;;;;;5049400;28;20362;-83
2023/07/25 00:23:13;;;;;;;3.28;1.50;;;;;;;;;;5054097;28;20237;-83
2023/07/25 00:25:40;;;;;;;1.95;1.80;;;;;;;;;;5054121;28;20209;-84
2023/07/25 00:28:07;;;;;;;2.47;1.67;;;;;;;;;;5056057;28;20238;-83
2023/07/25 00:30:34;;;;;;;1.92;1.70;;;;;;;;;;5054135;28;20238;-83
2023/07/25 00:33:01;;;;;;;3.03;1.50;;;;;;;;;;5053567;28;20233;-83
2023/07/25 00:35:28;;;;;;;1.65;1.55;;;;;;;;;;5053971;28;20670;-83
2023/07/25 00:37:57;;;;;;;1.60;1.50;;;;;;;;;;5053513;28;20241;-83
2023/07/25 00:40:24;;;;;;;1.65;1.55;;;;;;;;;;5053985;28;20225;-83
2023/07/25 00:42:54;;;;;;;1.60;1.50;;;;;;;;;;5053263;28;20244;-83
2023/07/25 00:45:22;;;;;;;2.35;1.60;;;;;;;;;;5053993;28;20209;-83
2023/07/25 00:47:49;;;;;;;1.63;1.52;;;;;;;;;;5053510;28;20237;-84
2023/07/25 00:50:16;;;;;;;1.70;1.60;;;;;;;;;;5054435;28;20210;-83
2023/07/25 00:52:43;;;;;;;1.70;1.60;;;;;;;;;;5053888;28;20289;-83
2023/07/25 00:55:12;;;;;;;1.70;1.60;;;;;;;;;;5053780;28;20565;-83
2023/07/25 00:57:39;;;;;;;2.10;1.90;;;;;;;;;;5053490;28;20236;-83
2023/07/25 01:00:07;;;;;;;1.88;1.75;;;;;;;;;;5053525;28;20226;-83
2023/07/25 01:02:35;;;;;;;1.70;1.48;;;;;;;;;;5051576;28;20320;-83
2023/07/25 01:05:02;;;;;;;6.28;1.30;;;;;;;;;;5050008;28;20222;-83
2023/07/25 01:07:30;;;;;;;1.75;1.65;;;;;;;;;;5053222;28;20241;-83
2023/07/25 01:09:57;;;;;;;1.83;1.50;;;;;;;;;;5053400;28;20202;-84
2023/07/25 01:12:25;;;;;;;1.70;1.60;;;;;;;;;;5052904;28;20240;-83
2023/07/25 01:14:52;;;;;;;1.63;1.40;;;;;;;;;;5053223;28;20202;-83
2023/07/25 01:23:06;;;;;;;2.15;1.77;;;;;;;;;;5054524;28;20248;-90
2023/07/25 01:25:35;;;;;;;2.92;1.63;;;;;;;;;;5051030;28;20287;-90
2023/07/25 01:28:02;;;;;;;2.05;1.90;;;;;;;;;;5054829;28;20680;-90
2023/07/25 01:30:30;;;;;;;1.60;1.50;;;;;;;;;;5055024;28;20186;-90
2023/07/25 01:32:57;;;;;;;1.90;1.80;;;;;;;;;;5054661;28;20247;-90
2023/07/25 01:35:24;;;;;;;1.58;1.48;;;;;;;;;;5054488;28;20212;-90
2023/07/25 01:37:51;;;;;;;4.85;1.48;;;;;;;;;;5053712;28;20237;-90
2023/07/25 01:40:19;;;;;;;1.65;1.55;;;;;;;;;;5052737;28;20696;-89
2023/07/25 01:42:47;;;;;;;2.33;1.70;;;;;;;;;;5052426;28;20612;-90
2023/07/25 01:45:14;;;;;;;2.70;1.83;;;;;;;;;;5055732;28;20216;-90
2023/07/25 01:47:41;;;;;;;2.25;1.83;;;;;;;;;;5057535;28;20229;-90
2023/07/25 01:50:09;;;;;;;3.83;1.42;;;;;;;;;;5058650;28;20209;-90
2023/07/25 01:52:36;;;;;;;1.80;1.70;;;;;;;;;;5057100;28;20703;-90
2023/07/25 01:55:03;;;;;;;1.80;1.50;;;;;;;;;;5058802;28;20205;-91
2023/07/25 01:57:30;;;;;;;1.70;1.60;;;;;;;;;;5058162;28;20321;-91
2023/07/25 02:00:00;;;;;;;1.77;1.67;;;;;;;;;;5058224;28;20233;-91
2023/07/25 02:02:27;;;;;;;3.38;2.00;;;;;;;;;;5057375;28;20312;-91
2023/07/25 02:04:54;;;;;;;1.80;1.70;;;;;;;;;;5038025;28;20715;-90
2023/07/25 02:07:21;;;;;;;1.58;1.48;;;;;;;;;;5037603;28;20574;-90
2023/07/25 02:09:48;;;;;;;1.80;1.70;;;;;;;;;;5038118;28;20206;-91
2023/07/25 02:12:15;;;;;;;1.98;1.77;;;;;;;;;;5051885;28;20240;-90
2023/07/25 02:14:42;;;;;;;5.22;1.50;;;;;;;;;;5058207;28;20583;-90
2023/07/25 02:17:11;;;;;;;1.83;1.73;;;;;;;;;;5057585;28;20881;-90
2023/07/25 02:19:38;;;;;;;2.03;1.83;;;;;;;;;;5058091;28;20328;-90
2023/07/25 02:22:06;;;;;;;2.80;1.85;;;;;;;;;;5057071;28;20233;-90
2023/07/25 02:24:33;;;;;;;1.90;1.67;;;;;;;;;;5058149;28;20210;-91
2023/07/25 02:27:00;;;;;;;1.95;1.85;;;;;;;;;;5057544;28;20202;-91
2023/07/25 02:29:27;;;;;;;2.03;1.83;;;;;;;;;;5053738;28;20573;-91
2023/07/25 02:31:54;;;;;;;1.92;1.58;;;;;;;;;;5057283;28;20206;-91
2023/07/25 02:34:23;;;;;;;2.75;1.52;;;;;;;;;;5057150;28;20182;-90
2023/07/25 02:36:50;;;;;;;1.75;1.65;;;;;;;;;;5057543;28;20602;-90
2023/07/25 02:39:17;;;;;;;2.28;1.85;;;;;;;;;;5057170;28;20202;-90
2023/07/25 02:41:44;;;;;;;1.73;1.55;;;;;;;;;;5055734;28;20234;-91
2023/07/25 02:44:11;;;;;;;1.88;1.77;;;;;;;;;;5056603;28;20688;-91
2023/07/25 02:46:38;;;;;;;1.92;1.80;;;;;;;;;;5057190;28;20210;-90
2023/07/25 02:49:05;;;;;;;2.00;1.60;;;;;;;;;;5056419;28;20229;-90
2023/07/25 02:51:34;;;;;;;1.77;1.45;;;;;;;;;;5057014;28;20246;-89
2023/07/25 02:54:01;;;;;;;1.63;1.52;;;;;;;;;;5056624;28;20245;-90
2023/07/25 02:56:28;;;;;;;2.70;1.67;;;;;;;;;;5056531;28;20202;-91
2023/07/25 02:58:55;;;;;;;1.70;1.60;;;;;;;;;;5056822;28;20279;-90
2023/07/25 03:01:22;;;;;;;2.97;1.90;;;;;;;;;;5057481;28;20233;-91
2023/07/25 03:03:49;;;;;;;2.60;1.75;;;;;;;;;;5056862;28;20233;-91
2023/07/25 03:06:16;;;;;;;2.05;1.90;;;;;;;;;;5057515;28;20231;-91
2023/07/25 03:08:45;;;;;;;2.13;1.95;;;;;;;;;;5057145;28;20234;-91
2023/07/25 03:11:12;;;;;;;1.92;1.77;;;;;;;;;;5057439;28;20229;-91
2023/07/25 03:13:39;;;;;;;2.10;1.90;;;;;;;;;;5057231;28;20234;-91
2023/07/25 03:16:06;;;;;;;4.95;2.00;;;;;;;;;;5057753;28;20202;-92
2023/07/25 03:18:34;;;;;;;2.53;1.83;;;;;;;;;;5057065;28;20226;-91
2023/07/25 03:21:01;;;;;;;2.47;2.20;;;;;;;;;;5057583;28;20241;-92
2023/07/25 03:23:28;;;;;;;2.30;2.10;;;;;;;;;;5057362;28;20234;-92
2023/07/25 03:25:56;;;;;;;1.88;1.77;;;;;;;;;;5057613;28;20572;-91
2023/07/25 03:28:23;;;;;;;2.05;1.85;;;;;;;;;;5057186;28;20241;-92
2023/07/25 03:30:56;;;;;;;2.17;2.08;;;;;;;;;;5056950;28;20194;-91
2023/07/25 03:33:23;;;;;;;2.88;1.80;;;;;;;;;;5053348;28;20210;-91
2023/07/25 03:35:50;;;;;;;4.63;1.98;;;;;;;;;;5058266;28;20198;-92
2023/07/25 03:38:18;;;;;;;2.22;2.03;;;;;;;;;;5058557;28;20233;-91
2023/07/25 03:40:45;;;;;;;4.25;1.95;;;;;;;;;;5062188;28;20217;-91
2023/07/25 03:43:13;;;;;;;4.05;2.17;;;;;;;;;;5057294;28;20233;-92
2023/07/25 03:45:40;;;;;;;2.20;2.00;;;;;;;;;;5056908;28;20203;-92
2023/07/25 03:48:07;;;;;;;2.95;2.05;;;;;;;;;;5056125;28;20242;-91
2023/07/25 03:50:34;;;;;;;2.25;2.05;;;;;;;;;;5056681;28;20198;-91
2023/07/25 03:53:03;;;;;;;6.55;2.10;;;;;;;;;;5056305;28;20606;-90
2023/07/25 03:55:30;;;;;;;5.65;2.20;;;;;;;;;;5056773;28;20271;-91
2023/07/25 03:57:57;;;;;;;2.88;2.03;;;;;;;;;;5056671;28;20236;-91
2023/07/25 04:00:26;;;;;;;3.20;2.08;;;;;;;;;;5056533;28;20206;-91
2023/07/25 04:02:53;;;;;;;2.30;2.15;;;;;;;;;;5055867;28;20260;-91
2023/07/25 04:05:20;;;;;;;3.15;2.35;;;;;;;;;;5056436;28;20217;-90
2023/07/25 04:07:47;;;;;;;2.50;2.30;;;;;;;;;;5055507;28;20234;-91
2023/07/25 04:10:14;;;;;;;2.90;2.22;;;;;;;;;;5056942;28;20209;-91
2023/07/25 04:12:41;;;;;;;2.83;2.45;;;;;;;;;;5058224;28;20237;-91
2023/07/25 04:15:09;;;;;;;3.93;2.30;;;;;;;;;;5056698;28;20671;-91
2023/07/25 04:17:37;;;;;;;2.23;2.10;;;;;;;;;;5056020;28;20233;-91
2023/07/25 04:20:05;;;;;;;2.53;2.33;;;;;;;;;;5056089;28;20213;-91
2023/07/25 04:22:32;;;;;;;4.20;2.87;;;;;;;;;;5055228;28;20233;-91
2023/07/25 04:24:59;;;;;;;5.13;3.30;;;;;;;;;;5055950;28;20230;-90
2023/07/25 04:27:26;;;;;;;4.30;3.10;;;;;;;;;;5055603;28;20403;-91
2023/07/25 04:29:53;;;;;;;3.30;3.00;;;;;;;;;;5055641;28;20202;-90
2023/07/25 04:32:20;;;;;;;3.10;2.80;;;;;;;;;;5055018;28;20209;-90
2023/07/25 04:34:49;;;;;;;3.17;2.87;;;;;;;;;;5051700;28;20210;-90
2023/07/25 04:37:16;;;;;;;3.53;3.07;;;;;;;;;;5055189;28;20375;-90
2023/07/25 04:39:43;;;;;;;4.07;3.67;;;;;;;;;;5054862;28;20280;-89
2023/07/25 04:42:10;;;;;;;3.73;3.20;;;;;;;;;;5053427;28;20240;-90
2023/07/25 04:44:37;;;;;;;5.27;3.47;;;;;;;;;;5053724;28;20213;-89
2023/07/25 04:47:04;;;;;;;3.17;2.97;;;;;;;;;;5054767;28;20241;-89
2023/07/25 04:49:31;;;;;;;4.07;2.97;;;;;;;;;;5054992;28;20209;-90
2023/07/25 04:52:00;;;;;;;3.57;3.27;;;;;;;;;;5054400;28;20226;-90
2023/07/25 04:54:27;;;;;;;3.87;3.23;;;;;;;;;;5055241;28;20293;-89
2023/07/25 04:56:54;;;;;;;4.13;3.00;;;;;;;;;;5054772;28;20206;-90
2023/07/25 04:59:21;;;;;;;3.53;2.83;;;;;;;;;;5055358;28;20202;-90
2023/07/25 05:01:48;;;;;;;2.67;2.47;;;;;;;;;;5054690;28;20755;-91
2023/07/25 05:04:15;;;;;;;3.70;3.27;;;;;;;;;;5055208;28;20213;-90
2023/07/25 05:06:42;;;;;;;3.27;2.60;;;;;;;;;;5055271;28;20208;-90
2023/07/25 05:09:12;;;;;;;3.87;2.80;;;;;;;;;;5054532;28;20214;-90
2023/07/25 05:11:39;;;;;;;7.57;3.37;;;;;;;;;;5056392;28;20769;-90
2023/07/25 05:14:06;;;;;;;3.37;2.43;;;;;;;;;;5056233;28;20230;-90
2023/07/25 05:16:33;;;;;;;3.37;2.90;;;;;;;;;;5059169;28;20214;-90
2023/07/25 05:19:00;;;;;;;7.10;2.73;;;;;;;;;;5059248;28;20232;-90
2023/07/25 05:21:28;;;;;;;4.10;3.00;;;;;;;;;;5062178;28;20234;-90
2023/07/25 05:23:55;;;;;;;4.10;2.63;;;;;;;;;;5063924;28;20233;-90
2023/07/25 05:26:23;;;;;;;4.03;3.20;;;;;;;;;;5062903;28;20289;-90
2023/07/25 05:28:51;;;;;;;5.03;3.43;;;;;;;;;;5059849;28;20289;-89
2023/07/25 05:31:18;;;;;;;3.60;2.63;;;;;;;;;;5059877;28;20226;-89
2023/07/25 05:33:45;;;;;;;3.83;2.70;;;;;;;;;;5060773;28;20232;-90
2023/07/25 05:36:12;;;;;;;5.13;2.97;;;;;;;;;;5058509;28;20210;-90
2023/07/25 05:38:39;;;;;;;3.40;2.83;;;;;;;;;;5058580;28;20229;-90
2023/07/25 05:41:07;;;;;;;3.67;2.80;;;;;;;;;;5058122;28;20249;-90
2023/07/25 05:43:35;;;;;;;3.50;2.90;;;;;;;;;;5056723;28;20225;-89
2023/07/25 05:46:02;;;;;;;3.20;2.90;;;;;;;;;;5057151;28;20216;-89
2023/07/25 05:48:29;;;;;;;3.60;3.30;;;;;;;;;;5057426;28;20240;-89
2023/07/25 05:50:56;;;;;;;3.17;2.80;;;;;;;;;;5057680;28;20229;-89
2023/07/25 05:53:23;;;;;;;3.30;3.00;;;;;;;;;;5057376;28;20241;-89
2023/07/25 05:55:51;;;;;;;4.97;3.17;;;;;;;;;;5057796;28;20204;-91
2023/07/25 05:58:18;;;;;;;7.10;2.80;;;;;;;;;;5057548;28;20226;-90
2023/07/25 06:00:48;;;;;;;5.87;2.90;;;;;;;;;;5057359;28;20576;-88
2023/07/25 06:03:16;;;;;;;3.77;2.80;;;;;;;;;;5057043;28;20230;-90
2023/07/25 06:05:44;;;;;;;3.00;2.70;;;;;;;;;;5057422;28;20209;-89
2023/07/25 06:08:13;;;;;;;2.70;2.50;;;;;;;;;;5048461;28;20236;-89
2023/07/25 06:10:40;;;;;;;3.83;2.83;;;;;;;;;;5057465;28;20206;-89
2023/07/25 06:13:07;;;;;;;5.50;2.40;;;;;;;;;;5057349;28;21033;-89
2023/07/25 06:15:35;;;;;;;2.60;2.40;;;;;;;;;;5058492;28;20206;-90
2023/07/25 06:18:04;;;;;;;2.63;2.42;;;;;;;;;;5057474;28;20233;-89
2023/07/25 06:20:31;;;;;;;4.18;3.65;;;;;;;;;;5058766;28;20641;-90
2023/07/25 06:22:59;;;;;;;3.58;2.40;;;;;;;;;;5057210;28;20234;-89
2023/07/25 06:25:26;;;;;;;2.25;2.08;;;;;;;;;;5057841;28;20194;-89
2023/07/25 06:27:53;;;;;;;4.72;3.30;;;;;;;;;;5057096;28;20229;-88
2023/07/25 06:30:21;;;;;;;3.00;2.70;;;;;;;;;;5059435;28;20206;-89
2023/07/25 06:32:48;;;;;;;2.90;2.60;;;;;;;;;;5057302;28;20226;-89
2023/07/25 06:35:16;;;;;;;3.00;2.65;;;;;;;;;;5059070;28;20182;-86
2023/07/25 06:37:43;;;;;;;4.03;2.92;;;;;;;;;;5048694;28;20229;-91
2023/07/25 06:40:11;;;;;;;2.60;2.40;;;;;;;;;;5056832;28;20209;-90
2023/07/25 06:42:38;;;;;;;4.88;2.60;;;;;;;;;;5057443;28;20242;-91
2023/07/25 06:45:05;;;;;;;4.38;3.03;;;;;;;;;;5057289;28;20225;-91
2023/07/25 06:47:32;;;;;;;5.03;3.10;;;;;;;;;;5056955;28;20236;-90
2023/07/25 06:50:00;;;;;;;4.18;2.83;;;;;;;;;;5058454;28;20194;-91
2023/07/25 06:52:28;;;;;;;3.88;3.47;;;;;;;;;;5058509;28;20279;-91
2023/07/25 06:54:58;;;;;;;3.55;2.97;;;;;;;;;;5061577;28;20217;-91
2023/07/25 06:57:28;;;;;;;5.35;2.92;;;;;;;;;;5058903;28;20221;-92
2023/07/25 06:59:55;;;;;;;3.60;2.72;;;;;;;;;;5058755;28;20210;-91
2023/07/25 07:02:22;;;;;;;3.55;2.70;;;;;;;;;;5058603;28;20233;-92
2023/07/25 07:04:49;;;;;;;3.33;2.92;;;;;;;;;;5059279;28;20680;-91
2023/07/25 07:07:16;;;;;;;4.47;3.15;;;;;;;;;;5057985;28;20236;-91
2023/07/25 07:09:45;;;;;;;7.68;2.80;;;;;;;;;;5059215;28;20198;-92
2023/07/25 07:12:12;;;;;;;4.40;2.70;;;;;;;;;;5058632;28;20240;-91
2023/07/25 07:14:40;;;;;;;3.45;2.85;;;;;;;;;;5059198;28;20209;-91
2023/07/25 07:17:07;;;;;;;4.38;2.95;;;;;;;;;;5057952;28;20284;-90
2023/07/25 07:19:34;;;;;;;4.90;2.67;;;;;;;;;;5056873;28;20217;-90
2023/07/25 07:22:01;;;;;;;2.63;2.42;;;;;;;;;;5056262;28;20233;-89
2023/07/25 07:24:28;;;;;;;3.83;2.70;;;;;;;;;;5056472;28;20202;-87
2023/07/25 07:26:56;;;;;;;3.58;2.80;;;;;;;;;;5055468;28;20206;-88
2023/07/25 07:29:23;;;;;;;3.67;2.53;;;;;;;;;;5056198;28;20206;-88
2023/07/25 07:31:51;;;;;;;3.42;2.88;;;;;;;;;;5055235;28;20222;-87
2023/07/25 07:34:18;;;;;;;2.80;2.47;;;;;;;;;;5053551;28;20202;-87
2023/07/25 07:36:46;;;;;;;3.03;2.83;;;;;;;;;;5054699;28;20201;-86
2023/07/25 07:39:13;;;;;;;3.50;2.70;;;;;;;;;;5055565;28;20212;-87
2023/07/25 07:41:40;;;;;;;4.03;2.95;;;;;;;;;;5055025;28;20221;-86
2023/07/25 07:44:08;;;;;;;6.47;3.00;;;;;;;;;;5053713;28;20237;-85
2023/07/25 07:46:36;;;;;;;3.70;2.90;;;;;;;;;;5050538;28;20222;-86
2023/07/25 07:49:03;;;;;;;5.97;3.13;;;;;;;;;;5054070;28;20233;-85
2023/07/25 07:51:30;;;;;;;5.57;3.17;;;;;;;;;;5054234;28;20226;-87
2023/07/25 07:53:57;;;;;;;4.18;2.80;;;;;;;;;;5055314;28;20239;-87
2023/07/25 07:56:24;;;;;;;2.83;2.63;;;;;;;;;;5055947;28;20217;-87
2023/07/25 07:58:51;;;;;;;3.80;2.70;;;;;;;;;;5054962;28;20228;-88
2023/07/25 08:01:21;;;;;;;3.00;2.70;;;;;;;;;;5055499;28;20222;-89
2023/07/25 08:03:48;;;;;;;4.15;2.85;;;;;;;;;;5056411;28;20234;-89
2023/07/25 08:06:17;;;;;;;3.63;2.95;;;;;;;;;;5056094;28;20576;-87
2023/07/25 08:08:44;;;;;;;3.03;2.65;;;;;;;;;;5055660;28;20234;-88
2023/07/25 08:11:11;;;;;;;5.75;3.00;;;;;;;;;;5056102;28;20230;-88
2023/07/25 08:13:38;;;;;;;3.28;2.97;;;;;;;;;;5050341;28;20229;-88
2023/07/25 08:16:06;;;;;;;3.95;3.13;;;;;;;;;;5058089;28;20216;-90
2023/07/25 08:18:35;;;;;;;3.38;3.08;;;;;;;;;;5059013;28;20226;-90
2023/07/25 08:21:02;;;;;;;3.65;3.35;;;;;;;;;;5059152;28;20226;-91
2023/07/25 08:23:29;;;;;;;3.33;3.05;;;;;;;;;;5057585;28;20229;-89
2023/07/25 08:25:57;;;;;;;5.60;3.33;;;;;;;;;;5058143;28;20305;-89
2023/07/25 08:28:24;;;;;;;4.32;3.90;;;;;;;;;;5057720;28;20597;-89
2023/07/25 08:30:58;;;;;;;3.70;3.40;;;;;;;;;;5055682;28;20205;-91
2023/07/25 08:33:26;;;;;;;3.30;3.00;;;;;;;;;;5059591;28;20222;-91
2023/07/25 08:35:54;;;;;;;3.72;3.42;;;;;;;;;;5060985;28;20213;-91
2023/07/25 08:38:21;;;;;;;3.63;3.25;;;;;;;;;;5059141;28;20238;-90
2023/07/25 08:40:55;;;;;;;4.18;3.22;;;;;;;;;;5057309;28;20210;-89
2023/07/25 08:43:23;;;;;;;11.18;4.38;;;;;;;;;;5054021;28;20757;-88
2023/07/25 08:45:51;;;;;;;5.70;4.03;;;;;;;;;;5054041;28;20680;-86
2023/07/25 08:48:19;;;;;;;6.13;4.30;;;;;;;;;;5050462;28;20237;-87
2023/07/25 08:50:47;;;;;;;6.70;3.55;;;;;;;;;;5051615;28;20210;-86
2023/07/25 08:53:16;;;;;;;6.38;3.72;;;;;;;;;;5050493;28;20226;-88
2023/07/25 08:55:44;;;;;;;6.20;3.50;;;;;;;;;;5050989;28;20240;-87
2023/07/25 08:58:11;;;;;;;6.03;4.35;;;;;;;;;;5051619;28;20228;-87
2023/07/25 09:00:38;;;;;;;4.63;4.22;;;;;;;;;;5051558;28;20202;-87
2023/07/25 09:03:05;;;;;;;4.85;4.35;;;;;;;;;;5050090;28;20230;-87
2023/07/25 09:05:33;;;;;;;5.95;4.00;;;;;;;;;;5050380;28;20202;-86
2023/07/25 09:08:00;;;;;;;4.32;3.92;;;;;;;;;;5050386;28;20226;-88
2023/07/25 09:10:28;;;;;;;5.28;4.28;;;;;;;;;;5050670;28;20213;-87
2023/07/25 09:12:56;;;;;;;7.30;4.47;;;;;;;;;;5050492;28;20234;-88
2023/07/25 09:15:23;;;;;;;5.93;4.50;;;;;;;;;;5050769;28;20206;-88
2023/07/25 09:17:51;;;;;;;6.55;4.53;;;;;;;;;;5050405;28;20241;-87
2023/07/25 09:20:18;;;;;;;5.65;4.10;;;;;;;;;;5051186;28;20201;-88
2023/07/25 09:22:48;;;;;;;4.15;3.75;;;;;;;;;;5050024;28;20257;-88
2023/07/25 09:25:15;;;;;;;5.38;4.18;;;;;;;;;;5051007;28;20606;-87
2023/07/25 09:27:46;;;;;;;4.90;4.40;;;;;;;;;;5050545;28;20234;-87
2023/07/25 09:30:14;;;;;;;5.25;4.22;;;;;;;;;;5051386;28;20264;-89
2023/07/25 09:32:46;;;;;;;5.68;4.30;;;;;;;;;;5050751;28;20265;-88
2023/07/25 09:35:13;;;;;;;6.30;4.68;;;;;;;;;;5051123;28;20210;-88
2023/07/25 09:37:40;;;;;;;5.10;4.27;;;;;;;;;;5050884;28;20237;-89
2023/07/25 09:40:11;;;;;;;4.53;4.03;;;;;;;;;;5051308;28;20695;-88
2023/07/25 09:42:41;;;;;;;4.20;3.57;;;;;;;;;;5050752;28;20234;-89
2023/07/25 09:45:11;;;;;;;6.43;3.40;;;;;;;;;;5050879;28;20202;-88
2023/07/25 09:47:38;;;;;;;8.40;3.70;;;;;;;;;;5050765;28;20645;-88
2023/07/25 09:50:06;;;;;;;4.07;3.43;;;;;;;;;;5049381;28;20213;-89
2023/07/25 09:52:39;;;;;;;3.70;3.30;;;;;;;;;;5050599;28;20766;-87
2023/07/25 09:55:06;;;;;;;3.57;3.20;;;;;;;;;;5051576;28;20206;-88
2023/07/25 09:57:35;;;;;;;4.77;3.37;;;;;;;;;;5040521;28;20222;-88
2023/07/25 10:00:03;;;;;;;4.77;3.40;;;;;;;;;;5051125;28;20264;-88
2023/07/25 10:02:32;;;;;;;3.47;3.17;;;;;;;;;;5052743;28;22115;-87
2023/07/25 10:04:59;;;;;;;4.07;3.67;;;;;;;;;;5052680;28;20214;-88
2023/07/25 10:07:27;;;;;;;4.40;4.00;;;;;;;;;;5055913;28;21528;-88
2023/07/25 10:09:54;;;;;;;4.32;3.97;;;;;;;;;;5056987;28;20217;-90
2023/07/25 10:12:21;;;;;;;4.87;4.43;;;;;;;;;;5055165;28;20233;-86
2023/07/25 10:14:48;;;;;;;4.70;4.30;;;;;;;;;;5054294;28;20677;-87
2023/07/25 10:17:16;;;;;;;5.27;4.77;;;;;;;;;;5052710;28;20230;-86
2023/07/25 10:19:48;;;;;;;6.77;5.30;;;;;;;;;;5053879;28;20312;-86
2023/07/25 10:22:16;;;;;;;6.00;5.40;;;;;;;;;;5052909;28;20242;-85
2023/07/25 10:24:43;;;;;;;5.97;5.27;;;;;;;;;;5054663;28;20233;-86
2023/07/25 10:27:11;;;;;;;6.20;5.60;;;;;;;;;;5053256;28;20226;-86
2023/07/25 10:29:42;;;;;;;6.87;5.63;;;;;;;;;;5054949;28;20240;-86
2023/07/25 10:32:10;;;;;;;5.72;5.22;;;;;;;;;;5053315;28;20264;-87
2023/07/25 10:34:51;;;;;;;8.33;4.90;;;;;;;;;;5054095;28;20233;-86
2023/07/25 10:37:26;;;;;;;5.35;4.85;;;;;;;;;;5052258;28;20255;-86
2023/07/25 10:40:04;;;;;;;8.43;4.83;;;;;;;;;;5052999;28;20205;-87
2023/07/25 10:42:44;;;;;;;6.72;5.03;;;;;;;;;;5051560;28;20757;-88
2023/07/25 10:45:44;;;;;;;4.93;4.50;;;;;;;;;;5053989;28;20639;-87
2023/07/25 10:48:26;;;;;;;5.63;4.63;;;;;;;;;;5058085;28;20236;-87
2023/07/25 10:50:54;;;;;;;6.43;5.35;;;;;;;;;;5055068;28;20730;-87
2023/07/25 10:53:24;;;;;;;6.20;5.60;;;;;;;;;;5054103;28;20222;-87
2023/07/25 10:56:06;;;;;;;11.10;5.30;;;;;;;;;;5055191;28;20202;-88
2023/07/25 10:58:34;;;;;;;7.35;5.75;;;;;;;;;;5047596;28;20252;-87
2023/07/25 11:01:01;;;;;;;5.90;5.32;;;;;;;;;;5057760;28;20226;-87
2023/07/25 11:03:29;;;;;;;5.63;5.13;;;;;;;;;;5048874;28;20236;-88
2023/07/25 11:06:24;;;;;;;6.10;5.22;;;;;;;;;;5054206;28;20210;-87
2023/07/25 11:08:52;;;;;;;6.43;5.82;;;;;;;;;;5049919;28;20691;-87
2023/07/25 11:11:20;;;;;;;6.55;5.93;;;;;;;;;;5055360;28;20228;-87
2023/07/25 11:13:47;;;;;;;6.78;5.60;;;;;;;;;;5055941;28;20221;-88
2023/07/25 11:16:14;;;;;;;6.25;5.68;;;;;;;;;;5067811;28;20213;-88
2023/07/25 11:18:49;;;;;;;6.43;5.70;;;;;;;;;;5057226;28;20620;-88
2023/07/25 11:21:18;;;;;;;7.30;5.60;;;;;;;;;;5053701;28;20583;-88
2023/07/25 11:23:45;;;;;;;6.00;5.45;;;;;;;;;;5055723;28;20241;-88
2023/07/25 11:26:13;;;;;;;8.57;5.13;;;;;;;;;;5057261;28;20216;-89
2023/07/25 11:28:40;;;;;;;5.65;5.07;;;;;;;;;;5057316;28;20391;-90
2023/07/25 11:31:07;;;;;;;6.00;5.07;;;;;;;;;;5067992;28;20226;-89
2023/07/25 11:33:37;;;;;;;5.47;4.70;;;;;;;;;;5058235;28;20233;-90
2023/07/25 11:36:05;;;;;;;6.28;5.15;;;;;;;;;;5075223;28;20201;-88
2023/07/25 11:38:35;;;;;;;8.65;5.30;;;;;;;;;;5065211;28;20229;-89
2023/07/25 11:41:03;;;;;;;4.80;4.30;;;;;;;;;;5058676;28;20218;-88
2023/07/25 11:43:32;;;;;;;7.25;4.15;;;;;;;;;;5041582;28;20317;-88
2023/07/25 11:45:59;;;;;;;4.07;3.67;;;;;;;;;;5060470;28;20206;-88
2023/07/25 11:48:27;;;;;;;4.50;3.63;;;;;;;;;;5057092;28;20241;-89
2023/07/25 11:50:54;;;;;;;5.30;3.88;;;;;;;;;;5059382;28;20233;-89
2023/07/25 11:53:23;;;;;;;4.30;3.90;;;;;;;;;;5053151;28;20234;-89
2023/07/25 11:55:52;;;;;;;5.68;3.90;;;;;;;;;;5059996;28;20660;-89
2023/07/25 11:58:20;;;;;;;4.13;3.72;;;;;;;;;;5058179;28;20257;-88
2023/07/25 12:00:51;;;;;;;4.05;3.20;;;;;;;;;;5057138;28;20206;-89
2023/07/25 12:03:18;;;;;;;3.63;3.10;;;;;;;;;;5058261;28;20210;-88
2023/07/25 12:05:52;;;;;;;3.72;3.42;;;;;;;;;;5056663;28;20209;-89
2023/07/25 12:08:31;;;;;;;3.13;2.85;;;;;;;;;;5057189;28;20293;-90
2023/07/25 12:11:01;;;;;;;2.95;2.70;;;;;;;;;;5051164;28;20225;-89
2023/07/25 12:13:28;;;;;;;3.20;2.90;;;;;;;;;;5057129;28;20276;-89
2023/07/25 12:15:57;;;;;;;3.65;2.35;;;;;;;;;;5055931;28;20240;-91
2023/07/25 12:18:27;;;;;;;2.58;2.45;;;;;;;;;;5058507;28;20598;-90
2023/07/25 12:20:54;;;;;;;2.80;2.30;;;;;;;;;;5059164;28;20241;-88
2023/07/25 12:23:27;;;;;;;2.25;2.10;;;;;;;;;;5058063;28;20233;-88
2023/07/25 12:25:55;;;;;;;2.22;2.03;;;;;;;;;;5056528;28;20206;-89
2023/07/25 12:28:24;;;;;;;2.40;2.00;;;;;;;;;;5054249;28;20317;-89
2023/07/25 12:30:52;;;;;;;2.17;2.08;;;;;;;;;;5057982;28;20206;-88
2023/07/25 12:33:19;;;;;;;1.88;1.77;;;;;;;;;;5057349;28;20688;-88
2023/07/25 12:35:46;;;;;;;2.63;1.48;;;;;;;;;;5059424;28;20296;-89
2023/07/25 12:38:13;;;;;;;1.70;1.60;;;;;;;;;;5058619;28;20234;-90
2023/07/25 12:40:41;;;;;;;3.35;1.38;;;;;;;;;;5056991;28;20680;-88
2023/07/25 12:43:08;;;;;;;1.90;1.77;;;;;;;;;;5056146;28;20238;-88
2023/07/25 12:45:36;;;;;;;1.70;1.60;;;;;;;;;;5059129;28;20715;-89
2023/07/25 12:48:03;;;;;;;2.13;2.03;;;;;;;;;;5056184;28;20236;-89
2023/07/25 12:50:31;;;;;;;2.45;1.73;;;;;;;;;;5053592;28;20664;-89
2023/07/25 12:52:58;;;;;;;2.08;1.90;;;;;;;;;;5053855;28;20695;-89
2023/07/25 12:55:25;;;;;;;1.70;1.60;;;;;;;;;;5052363;28;20617;-89
2023/07/25 12:57:52;;;;;;;1.48;1.38;;;;;;;;;;5054387;28;20244;-89
2023/07/25 13:00:26;;;;;;;1.65;1.52;;;;;;;;;;5053370;28;20289;-89
2023/07/25 13:03:09;;;;;;;1.30;1.20;;;;;;;;;;5054011;28;20386;-89
2023/07/25 13:05:37;;;;;;;3.72;1.50;;;;;;;;;;5054368;28;20206;-88
2023/07/25 13:08:04;;;;;;;1.73;1.63;;;;;;;;;;5052876;28;20238;-88
2023/07/25 13:10:31;;;;;;;1.75;1.60;;;;;;;;;;5052740;28;20208;-89
2023/07/25 13:12:58;;;;;;;1.80;1.70;;;;;;;;;;5053306;28;20245;-89
2023/07/25 13:15:26;;;;;;;2.65;1.52;;;;;;;;;;5059152;28;20234;-88
2023/07/25 13:17:55;;;;;;;2.92;1.75;;;;;;;;;;5066096;22;20237;-90
2023/07/25 13:20:22;;;;;;;1.60;1.50;;;;;;;;;;5058348;28;20208;-90
2023/07/25 13:22:55;;;;;;;1.55;1.45;;;;;;;;;;5058560;28;20237;-90
2023/07/25 13:25:22;;;;;;;1.63;1.52;;;;;;;;;;5056242;28;20225;-90
2023/07/25 13:27:49;;;;;;;1.25;1.15;;;;;;;;;;5038208;28;20235;-90
2023/07/25 13:30:16;;;;;;;1.90;1.80;;;;;;;;;;5056744;28;20225;-88
2023/07/25 13:32:43;;;;;;;3.15;1.60;;;;;;;;;;5039455;28;20242;-89
2023/07/25 13:35:12;;;;;;;1.60;1.50;;;;;;;;;;5055218;28;20221;-89
2023/07/25 13:37:39;;;;;;;4.13;1.48;;;;;;;;;;5049091;28;20244;-90
2023/07/25 13:40:07;;;;;;;1.52;1.42;;;;;;;;;;5056583;28;20240;-90
2023/07/25 13:42:34;;;;;;;1.65;1.35;;;;;;;;;;5047444;28;20240;-89
2023/07/25 13:45:02;;;;;;;2.25;1.45;;;;;;;;;;5051217;28;20230;-90
2023/07/25 13:47:29;;;;;;;1.65;1.40;;;;;;;;;;5061034;28;20648;-90
2023/07/25 13:49:58;;;;;;;4.68;1.40;;;;;;;;;;5063396;28;20523;-91
2023/07/25 13:52:28;;;;;;;1.30;1.20;;;;;;;;;;5058156;28;20707;-88
2023/07/25 13:54:55;;;;;;;1.50;1.40;;;;;;;;;;5041781;28;20237;-88
2023/07/25 13:57:22;;;;;;;1.83;1.33;;;;;;;;;;5050006;28;20238;-89
2023/07/25 13:59:49;;;;;;;1.10;1.10;;;;;;;;;;5051584;28;20202;-89
2023/07/25 14:02:16;;;;;;;1.38;1.27;;;;;;;;;;5052156;28;20236;-89
2023/07/25 14:04:43;;;;;;;1.15;1.08;;;;;;;;;;5040573;28;20287;-90
2023/07/25 14:07:10;;;;;;;1.48;1.23;;;;;;;;;;5046013;28;20238;-90
2023/07/25 14:09:38;;;;;;;1.80;1.38;;;;;;;;;;5048253;28;20217;-91
2023/07/25 14:12:06;;;;;;;1.60;1.38;;;;;;;;;;5048167;28;20229;-91
2023/07/25 14:14:33;;;;;;;1.70;1.60;;;;;;;;;;5053554;28;20209;-91
2023/07/25 14:17:03;;;;;;;1.52;1.42;;;;;;;;;;5054750;28;20241;-91
2023/07/25 14:19:30;;;;;;;1.50;1.40;;;;;;;;;;5045888;28;20633;-91
2023/07/25 14:21:57;;;;;;;1.48;1.40;;;;;;;;;;5044182;28;20205;-91
2023/07/25 14:24:24;;;;;;;1.55;1.45;;;;;;;;;;5047516;28;20608;-92
2023/07/25 14:26:52;;;;;;;2.22;1.60;;;;;;;;;;5040354;28;20238;-91
2023/07/25 14:29:19;;;;;;;1.63;1.50;;;;;;;;;;5055662;28;20579;-91
2023/07/25 14:31:46;;;;;;;1.88;1.58;;;;;;;;;;5055588;28;20206;-91
2023/07/25 14:34:13;;;;;;;2.97;1.60;;;;;;;;;;5039451;28;20195;-92
2023/07/25 14:36:40;;;;;;;1.42;1.40;;;;;;;;;;5043921;28;20237;-93
2023/07/25 14:39:08;;;;;;;1.80;1.60;;;;;;;;;;5052711;28;20230;-92
2023/07/25 14:41:35;;;;;;;2.03;1.33;;;;;;;;;;5044662;28;20210;-92
2023/07/25 14:44:03;;;;;;;1.40;1.30;;;;;;;;;;5042977;28;20231;-91
2023/07/25 14:46:30;;;;;;;1.48;1.38;;;;;;;;;;5044677;28;20225;-92
2023/07/25 14:48:57;;;;;;;1.63;1.50;;;;;;;;;;5041214;28;20226;-92
2023/07/25 14:51:30;;;;;;;1.63;1.52;;;;;;;;;;5043907;28;20195;-91
2023/07/25 14:53:57;;;;;;;1.90;1.40;;;;;;;;;;5054323;28;20233;-92